PAWM

Details ICAO PAWM (WMO)
Name White Mountain
Region USA (Alaska)
Timezone America/Nome (UTC-8.0)
Plans Departing 1
Arriving 2
Stats Elevation 261 ft / 80 m (AMSL)
Location 64.689194° -163.412556°
Runways 1
Magnetic Variation 10.865° E
Sunrise 2018-05-22 13:09:22 UTC / 2018-05-22 05:09:22 Local
Sunset 2018-05-23 08:34:11 UTC / 2018-05-23 00:34:11 Local
Advertisement - Login to hide

Runways

ID Width Length Bearing (true) Bearing (mag) Surface Threshold Offset Overrun Length
15 59 ft / 18 m 3,003 ft / 915 m 164.00° 153.13° Gravel 0 ft / 0 m 0 ft / 0 m
33 59 ft / 18 m 3,003 ft / 915 m 344.00° 333.13° Gravel 0 ft / 0 m 0 ft / 0 m

Map

Weather


0- 5 10 15 20 25 30 35+ Temperature / ° C

Clouds and Precipitation
Forecast for 2018-05-22 18:00 UTC. Updated 5 hours ago

Ground ~20,000 ft ~40,000 ft Winds

METAR

PAWM 222056Z AUTO VRB04KT 10SM CLR 07/M01 A2962 RMK AO2 SLP033 T00671011 58003

TAF

Not found

Frequencies

Recorded 121.45 MHz AWOS-3
Unicom 122.90 MHz CTAF
Warning: Do not use this data for real-world aviation or navigation. No guarantee of current accuracy is given.